createdAt,value
2024-04-30T00:00:29.035Z,99702.19
2024-04-30T00:03:34.091Z,99709.06
2024-04-30T00:06:40.672Z,99709.06
2024-04-30T00:09:46.113Z,99699.44
2024-04-30T00:12:48.509Z,99701.22
2024-04-30T00:15:53.582Z,99700.44
2024-04-30T00:18:56.031Z,99699.44
2024-04-30T00:22:03.783Z,99705.34
2024-04-30T00:25:06.517Z,99701.81
2024-04-30T00:28:11.542Z,99699.75
2024-04-30T00:31:16.859Z,99698.50
2024-04-30T00:34:19.305Z,99705.34
2024-04-30T00:37:27.068Z,99701.06
2024-04-30T00:40:29.559Z,99708.13
2024-04-30T00:43:34.782Z,99706.59
2024-04-30T00:46:37.789Z,99703.28
2024-04-30T00:49:43.755Z,99707.91
2024-04-30T00:52:53.729Z,99708.41
2024-04-30T00:55:56.244Z,99703.78
2024-04-30T00:59:01.565Z,99714.38
2024-04-30T01:02:04.989Z,99709.28
2024-04-30T01:05:10.061Z,99714.72
2024-04-30T01:08:17.983Z,99711.09
2024-04-30T01:11:21.043Z,99711.81
2024-04-30T01:14:26.251Z,99707.31
2024-04-30T01:17:28.668Z,99712.66
2024-04-30T01:20:34.076Z,99710.59
2024-04-30T01:23:39.109Z,99721.44
2024-04-30T01:26:44.172Z,99715.13
2024-04-30T01:29:46.559Z,99715.94
2024-04-30T01:32:52.232Z,99716.25
2024-04-30T01:35:54.705Z,99718.44
2024-04-30T01:39:02.464Z,99706.38
2024-04-30T01:42:06.025Z,99712.19
2024-04-30T01:45:11.346Z,99718.50
2024-04-30T01:48:13.900Z,99715.06
2024-04-30T01:51:18.958Z,99727.56
2024-04-30T01:54:23.977Z,99717.25
2024-04-30T01:57:29.104Z,99719.28
2024-04-30T02:00:34.237Z,99712.53
2024-04-30T02:03:36.723Z,99717.69
2024-04-30T02:06:41.771Z,99718.50
2024-04-30T02:09:49.439Z,99717.09
2024-04-30T02:12:52.042Z,99712.31
2024-04-30T02:15:57.170Z,99716.69
2024-04-30T02:19:02.214Z,99725.56
2024-04-30T02:22:05.161Z,99717.06
2024-04-30T02:25:12.935Z,99716.53
2024-04-30T02:28:18.026Z,99725.47
2024-04-30T02:31:39.202Z,99719.84
2024-04-30T02:34:44.395Z,99717.41
2024-04-30T02:37:49.353Z,99721.03
2024-04-30T02:40:57.115Z,99715.78
2024-04-30T02:44:02.181Z,99726.16
2024-04-30T02:47:05.021Z,99714.00
2024-04-30T02:50:10.379Z,99703.75
2024-04-30T02:53:12.945Z,99703.53
2024-04-30T02:56:21.498Z,99713.50
2024-04-30T02:59:23.991Z,99717.09
2024-04-30T03:02:32.119Z,99710.09
2024-04-30T03:05:37.413Z,99711.53
2024-04-30T03:08:40.529Z,99724.09
2024-04-30T03:11:48.984Z,99719.84
2024-04-30T03:14:51.838Z,99718.41
2024-04-30T03:17:57.367Z,99721.88
2024-04-30T03:21:00.252Z,99725.13
2024-04-30T03:24:05.676Z,99733.09
2024-04-30T03:27:10.847Z,99728.72
2024-04-30T03:30:16.043Z,99732.25
2024-04-30T03:33:18.539Z,99725.38
2024-04-30T03:36:23.719Z,99734.28
2024-04-30T03:39:28.635Z,99741.44
2024-04-30T03:42:37.324Z,99733.94
2024-04-30T03:45:42.336Z,99731.59
2024-04-30T03:48:47.412Z,99736.25
2024-04-30T03:51:50.705Z,99739.75
2024-04-30T03:54:55.652Z,99741.16
2024-04-30T03:58:03.300Z,99745.69
2024-04-30T04:01:06.234Z,99738.31
2024-04-30T04:04:11.420Z,99740.69
2024-04-30T04:07:15.637Z,99742.50
2024-04-30T04:10:20.765Z,99745.38
2024-04-30T04:13:44.383Z,99744.25
2024-04-30T04:16:49.756Z,99754.09
2024-04-30T04:19:54.927Z,99750.94
2024-04-30T04:23:00.067Z,99753.97
2024-04-30T04:26:05.092Z,99750.59
2024-04-30T04:29:10.017Z,99752.84
2024-04-30T04:32:16.067Z,99750.91
2024-04-30T04:35:19.092Z,99756.00
2024-04-30T04:38:25.209Z,99764.34
2024-04-30T04:41:27.587Z,99762.59
2024-04-30T04:44:35.981Z,99766.19
2024-04-30T04:47:41.092Z,99773.72
2024-04-30T04:50:43.732Z,99766.50
2024-04-30T04:53:48.946Z,99768.09
2024-04-30T04:56:54.119Z,99769.47
2024-04-30T04:59:59.267Z,99770.78
2024-04-30T05:03:04.523Z,99773.22
2024-04-30T05:06:07.185Z,99767.09
2024-04-30T05:09:12.331Z,99771.56
2024-04-30T05:12:14.820Z,99770.91
2024-04-30T05:15:22.719Z,99769.78
2024-04-30T05:18:28.422Z,99767.19
2024-04-30T05:21:31.837Z,99770.25
2024-04-30T05:24:37.254Z,99764.50
2024-04-30T05:27:39.866Z,99766.63
2024-04-30T05:30:47.825Z,99764.78
2024-04-30T05:33:53.231Z,99765.53
2024-04-30T05:36:56.130Z,99753.41
2024-04-30T05:40:01.580Z,99757.94
2024-04-30T05:43:08.641Z,99758.81
2024-04-30T05:46:16.599Z,99756.94
2024-04-30T05:49:21.788Z,99756.41
2024-04-30T05:52:30.837Z,99751.72
2024-04-30T05:55:36.184Z,99757.13
2024-04-30T05:58:38.874Z,99755.75
2024-04-30T06:01:46.680Z,99762.78
2024-04-30T06:04:49.227Z,99770.81
2024-04-30T06:07:54.479Z,99761.63
2024-04-30T06:11:02.406Z,99760.16
2024-04-30T06:14:08.087Z,99755.31
2024-04-30T06:17:20.291Z,99756.56
2024-04-30T06:20:23.630Z,99756.09
2024-04-30T06:23:31.907Z,99760.38
2024-04-30T06:26:40.616Z,99759.88
2024-04-30T06:29:52.282Z,99757.44
2024-04-30T06:33:00.719Z,99757.53
2024-04-30T06:36:09.953Z,99762.78
2024-04-30T06:39:16.343Z,99760.28
2024-04-30T06:42:18.979Z,99761.00
2024-04-30T06:45:25.004Z,99759.94
2024-04-30T06:48:34.455Z,99755.25
2024-04-30T06:51:40.965Z,99759.72
2024-04-30T06:54:43.522Z,99752.94
2024-04-30T06:57:49.559Z,99757.16
2024-04-30T07:00:54.921Z,99753.53
2024-04-30T07:04:00.370Z,99754.44
2024-04-30T07:07:05.752Z,99751.03
2024-04-30T07:10:08.685Z,99753.84
2024-04-30T07:13:13.954Z,99750.56
2024-04-30T07:16:19.181Z,99758.31
2024-04-30T07:19:24.411Z,99752.81
2024-04-30T07:22:29.892Z,99760.94
2024-04-30T07:25:34.226Z,99755.69
2024-04-30T07:28:39.568Z,99744.13
2024-04-30T07:31:42.280Z,99750.91
2024-04-30T07:34:50.337Z,99750.88
2024-04-30T07:37:52.880Z,99751.31
2024-04-30T07:40:58.598Z,99753.13
2024-04-30T07:44:01.445Z,99751.22
2024-04-30T07:47:09.349Z,99750.38
2024-04-30T07:50:41.918Z,99759.72
2024-04-30T07:53:47.503Z,99751.84
2024-04-30T07:56:52.977Z,99752.72
2024-04-30T07:59:58.763Z,99749.41
2024-04-30T08:03:04.516Z,99754.84
2024-04-30T08:06:20.460Z,99747.88
2024-04-30T08:09:24.038Z,99740.84
2024-04-30T08:12:30.302Z,99747.47
2024-04-30T08:15:32.964Z,99740.56
2024-04-30T08:18:40.448Z,99744.75
2024-04-30T08:21:52.887Z,99743.38
2024-04-30T08:24:58.502Z,99742.69
2024-04-30T08:28:01.188Z,99747.00
2024-04-30T08:31:06.656Z,99738.28
2024-04-30T08:34:09.830Z,99740.16
2024-04-30T08:37:17.665Z,99746.06
2024-04-30T08:40:23.755Z,99747.28
2024-04-30T08:43:27.758Z,99746.97
2024-04-30T08:46:35.025Z,99736.59
2024-04-30T08:49:48.630Z,99736.16
2024-04-30T08:53:00.707Z,99728.97
2024-04-30T08:56:12.556Z,99723.66
2024-04-30T08:59:15.318Z,99720.88
2024-04-30T09:02:20.995Z,99721.22
2024-04-30T09:05:26.570Z,99720.00
2024-04-30T09:08:32.031Z,99716.00
2024-04-30T09:11:37.447Z,99711.75
2024-04-30T09:14:48.821Z,99713.84
2024-04-30T09:17:54.132Z,99713.91
2024-04-30T09:20:59.271Z,99717.41
2024-04-30T09:24:13.911Z,99708.84
2024-04-30T09:27:16.902Z,99695.09
2024-04-30T09:30:24.211Z,99697.06
2024-04-30T09:33:30.780Z,99708.00
2024-04-30T09:36:36.494Z,99702.56
2024-04-30T09:39:46.977Z,99698.03
2024-04-30T09:42:50.416Z,99697.84
2024-04-30T09:45:56.418Z,99687.13
2024-04-30T09:49:05.019Z,99684.78
2024-04-30T09:52:13.618Z,99682.56
2024-04-30T09:55:21.734Z,99673.94
2024-04-30T09:58:24.407Z,99674.91
2024-04-30T10:01:32.960Z,99667.63
2024-04-30T10:04:36.327Z,99667.59
2024-04-30T10:07:42.169Z,99656.47
2024-04-30T10:10:51.464Z,99649.56
2024-04-30T10:13:57.616Z,99656.19
2024-04-30T10:17:01.076Z,99643.25
2024-04-30T10:20:06.703Z,99647.25
2024-04-30T10:23:11.175Z,99645.09
2024-04-30T10:26:19.257Z,99641.25
2024-04-30T10:29:24.489Z,99645.16
2024-04-30T10:32:26.946Z,99635.16
2024-04-30T10:35:42.920Z,99639.69
2024-04-30T10:38:49.420Z,99628.63
2024-04-30T10:41:57.514Z,99635.34
2024-04-30T10:45:02.694Z,99627.50
2024-04-30T10:48:15.362Z,99627.34
2024-04-30T10:51:18.587Z,99622.34
2024-04-30T10:54:23.901Z,99617.66
2024-04-30T10:57:38.407Z,99615.38
2024-04-30T11:00:44.450Z,99615.38
2024-04-30T11:03:51.719Z,99618.53
2024-04-30T11:06:57.020Z,99612.38
2024-04-30T11:09:59.754Z,99612.63
2024-04-30T11:13:11.470Z,99606.53
2024-04-30T11:16:17.059Z,99599.59
2024-04-30T11:19:20.867Z,99601.72
2024-04-30T11:22:26.342Z,99591.34
2024-04-30T11:25:32.068Z,99593.44
2024-04-30T11:28:40.137Z,99582.69
2024-04-30T11:31:45.625Z,99577.91
2024-04-30T11:34:53.783Z,99577.63
2024-04-30T11:37:56.429Z,99579.31
2024-04-30T11:41:01.759Z,99571.63
2024-04-30T11:44:06.944Z,99563.16
2024-04-30T11:47:12.127Z,99562.88
2024-04-30T11:50:17.190Z,99565.59
2024-04-30T11:53:22.632Z,99560.16
2024-04-30T11:56:31.812Z,99571.63
2024-04-30T11:59:41.937Z,99566.81
2024-04-30T12:02:47.261Z,99557.22
2024-04-30T12:05:53.683Z,99557.88
2024-04-30T12:09:00.554Z,99552.91
2024-04-30T12:12:09.186Z,99556.78
2024-04-30T12:15:17.534Z,99553.16
2024-04-30T12:18:22.699Z,99548.03
2024-04-30T12:21:28.091Z,99541.50
2024-04-30T12:24:36.197Z,99540.34
2024-04-30T12:27:41.253Z,99541.84
2024-04-30T12:30:49.088Z,99520.25
2024-04-30T12:33:51.640Z,99523.56
2024-04-30T12:36:57.032Z,99524.72
2024-04-30T12:40:05.042Z,99508.31
2024-04-30T12:43:12.271Z,99508.03
2024-04-30T12:46:20.554Z,99503.97
2024-04-30T12:49:25.865Z,99495.38
2024-04-30T12:52:31.021Z,99490.25
2024-04-30T12:55:34.998Z,99494.19
2024-04-30T12:58:40.805Z,99480.78
2024-04-30T13:01:48.628Z,99477.69
2024-04-30T13:04:53.873Z,99473.91
2024-04-30T13:07:56.436Z,99476.75
2024-04-30T13:11:01.693Z,99458.03
2024-04-30T13:14:07.013Z,99451.53
2024-04-30T13:17:12.067Z,99454.31
2024-04-30T13:20:17.336Z,99444.06
2024-04-30T13:23:19.767Z,99439.59
2024-04-30T13:26:24.886Z,99438.19
2024-04-30T13:29:29.974Z,99429.34
2024-04-30T13:32:35.291Z,99426.63
2024-04-30T13:35:41.240Z,99429.13
2024-04-30T13:38:46.580Z,99436.03
2024-04-30T13:41:52.410Z,99421.28
2024-04-30T13:44:57.898Z,99424.22
2024-04-30T13:48:11.019Z,99414.16
2024-04-30T13:51:17.242Z,99408.31
2024-04-30T13:54:22.364Z,99406.63
2024-04-30T13:57:24.943Z,99399.03
2024-04-30T14:00:30.355Z,99393.53
2024-04-30T14:03:35.571Z,99386.97
2024-04-30T14:06:42.497Z,99388.22
2024-04-30T14:09:45.024Z,99388.16
2024-04-30T14:12:50.504Z,99387.34
2024-04-30T14:15:55.831Z,99374.66
2024-04-30T14:19:03.847Z,99369.88
2024-04-30T14:22:29.823Z,99361.41
2024-04-30T14:25:32.807Z,99362.88
2024-04-30T14:28:38.371Z,99362.25
2024-04-30T14:31:44.641Z,99358.22
2024-04-30T14:34:56.408Z,99358.75
2024-04-30T14:37:59.457Z,99350.06
2024-04-30T14:41:05.011Z,99349.84
2024-04-30T14:44:13.766Z,99344.13
2024-04-30T14:47:43.308Z,99341.13
2024-04-30T14:51:07.868Z,99336.25
2024-04-30T14:54:15.338Z,99338.75
2024-04-30T14:57:42.287Z,99328.13
2024-04-30T15:00:50.883Z,99332.06
2024-04-30T15:03:54.175Z,99324.34
2024-04-30T15:07:24.040Z,99316.22
2024-04-30T15:10:29.944Z,99320.69
2024-04-30T15:13:32.781Z,99309.44
2024-04-30T15:16:38.073Z,99309.72
2024-04-30T15:19:45.864Z,99312.78
2024-04-30T15:22:51.263Z,99305.69
2024-04-30T15:25:58.275Z,99303.53
2024-04-30T15:29:03.370Z,99299.84
2024-04-30T15:32:12.301Z,99291.97
2024-04-30T15:35:28.493Z,99283.84
2024-04-30T15:38:48.672Z,99281.66
2024-04-30T15:41:55.435Z,99277.81
2024-04-30T15:44:57.932Z,99275.88
2024-04-30T15:48:04.189Z,99272.09
2024-04-30T15:51:08.551Z,99265.44
2024-04-30T15:54:17.955Z,99265.25
2024-04-30T15:57:24.603Z,99262.41
2024-04-30T16:00:29.847Z,99257.44
2024-04-30T16:03:32.426Z,99259.25
2024-04-30T16:06:37.573Z,99261.81
2024-04-30T16:09:42.566Z,99249.59
2024-04-30T16:12:47.928Z,99257.41
2024-04-30T16:16:00.248Z,99243.00
2024-04-30T16:19:10.325Z,99245.19
2024-04-30T16:22:15.595Z,99238.38
2024-04-30T16:25:23.248Z,99241.25
2024-04-30T16:28:28.428Z,99244.44
2024-04-30T16:31:34.851Z,99239.91
2024-04-30T16:34:42.742Z,99234.34
2024-04-30T16:37:45.224Z,99226.78
2024-04-30T16:40:53.245Z,99228.50
2024-04-30T16:43:58.168Z,99226.38
2024-04-30T16:47:00.494Z,99226.81
2024-04-30T16:50:10.067Z,99215.88
2024-04-30T16:53:15.094Z,99213.94
2024-04-30T16:56:23.419Z,99219.81
2024-04-30T16:59:25.738Z,99216.53
2024-04-30T17:02:30.783Z,99214.13
2024-04-30T17:05:35.929Z,99215.41
2024-04-30T17:08:40.997Z,99212.03
2024-04-30T17:11:47.989Z,99206.03
2024-04-30T17:14:53.615Z,99202.66
2024-04-30T17:17:59.768Z,99212.34
2024-04-30T17:21:03.408Z,99210.38
2024-04-30T17:24:08.652Z,99219.47
2024-04-30T17:27:16.223Z,99211.94
2024-04-30T17:30:18.749Z,99213.84
2024-04-30T17:33:24.086Z,99211.66
2024-04-30T17:36:28.000Z,99211.53
2024-04-30T17:39:33.490Z,99207.66
2024-04-30T17:42:43.159Z,99212.78
2024-04-30T17:45:48.100Z,99211.31
2024-04-30T17:48:50.887Z,99208.34
2024-04-30T17:51:55.897Z,99212.06
2024-04-30T17:54:58.386Z,99209.53
2024-04-30T17:58:06.067Z,99207.84
2024-04-30T18:01:10.761Z,99209.72
2024-04-30T18:04:16.221Z,99211.84
2024-04-30T18:07:21.372Z,99214.19
2024-04-30T18:10:36.095Z,99221.56
2024-04-30T18:13:48.955Z,99220.22
2024-04-30T18:16:54.121Z,99225.34
2024-04-30T18:19:59.151Z,99227.97
2024-04-30T18:23:01.445Z,99231.22
2024-04-30T18:26:06.774Z,99239.63
2024-04-30T18:29:11.766Z,99249.06
2024-04-30T18:32:18.375Z,99245.78
2024-04-30T18:35:20.783Z,99254.44
2024-04-30T18:38:25.902Z,99255.22
2024-04-30T18:41:31.183Z,99253.88
2024-04-30T18:44:39.230Z,99245.56
2024-04-30T18:47:44.291Z,99253.03
2024-04-30T18:50:49.364Z,99248.44
2024-04-30T18:53:51.776Z,99261.47
2024-04-30T18:56:56.959Z,99256.47
2024-04-30T19:00:02.203Z,99256.19
2024-04-30T19:03:08.116Z,99261.41
2024-04-30T19:06:17.934Z,99266.47
2024-04-30T19:09:20.595Z,99271.22
2024-04-30T19:12:25.924Z,99267.16
2024-04-30T19:15:33.931Z,99274.88
2024-04-30T19:18:40.788Z,99276.81
2024-04-30T19:21:49.659Z,99283.41
2024-04-30T19:24:55.215Z,99289.94
2024-04-30T19:28:01.329Z,99285.22
2024-04-30T19:31:09.265Z,99283.69
2024-04-30T19:34:16.611Z,99284.56
2024-04-30T19:37:21.980Z,99285.75
2024-04-30T19:40:25.836Z,99278.47
2024-04-30T19:43:31.032Z,99282.53
2024-04-30T19:46:38.944Z,99276.63
2024-04-30T19:49:44.349Z,99272.19
2024-04-30T19:52:47.219Z,99278.16
2024-04-30T19:55:54.121Z,99271.03
2024-04-30T19:58:59.774Z,99279.16
2024-04-30T20:02:05.483Z,99276.94
2024-04-30T20:05:11.726Z,99281.00
2024-04-30T20:08:17.291Z,99273.22
2024-04-30T20:11:21.033Z,99276.41
2024-04-30T20:14:26.551Z,99283.38
2024-04-30T20:17:31.725Z,99280.97
2024-04-30T20:20:36.823Z,99278.94
2024-04-30T20:23:39.809Z,99288.22
2024-04-30T20:26:45.707Z,99293.69
2024-04-30T20:29:51.067Z,99290.63
2024-04-30T20:32:58.694Z,99295.44
2024-04-30T20:36:01.172Z,99295.97
2024-04-30T20:39:06.540Z,99295.84
2024-04-30T20:42:11.632Z,99297.50
2024-04-30T20:45:16.611Z,99296.50
2024-04-30T20:48:26.253Z,99300.06
2024-04-30T20:51:31.428Z,99297.72
2024-04-30T20:54:37.663Z,99295.00
2024-04-30T20:57:40.016Z,99296.47
2024-04-30T21:00:45.220Z,99303.56
2024-04-30T21:03:50.975Z,99303.44
2024-04-30T21:06:56.238Z,99300.56
2024-04-30T21:09:58.986Z,99306.69
2024-04-30T21:13:04.469Z,99303.56
2024-04-30T21:16:07.248Z,99303.28
2024-04-30T21:19:15.255Z,99303.00
2024-04-30T21:22:20.213Z,99302.88
2024-04-30T21:25:22.506Z,99306.56
2024-04-30T21:28:27.721Z,99297.78
2024-04-30T21:31:33.083Z,99302.03
2024-04-30T21:34:40.712Z,99295.97
2024-04-30T21:37:45.676Z,99304.81
2024-04-30T21:40:48.038Z,99305.41
2024-04-30T21:43:53.463Z,99294.19
2024-04-30T21:46:55.892Z,99297.66
2024-04-30T21:50:03.525Z,99299.47
2024-04-30T21:53:05.906Z,99299.66
2024-04-30T21:56:10.969Z,99298.56
2024-04-30T21:59:13.299Z,99296.56
2024-04-30T22:02:18.347Z,99301.75
2024-04-30T22:05:26.144Z,99294.03
2024-04-30T22:08:31.269Z,99289.03
2024-04-30T22:11:33.564Z,99289.75
2024-04-30T22:14:38.519Z,99287.53
2024-04-30T22:17:40.904Z,99288.56
2024-04-30T22:20:48.520Z,99291.09
2024-04-30T22:23:53.536Z,99292.50
2024-04-30T22:26:58.507Z,99292.72
2024-04-30T22:30:12.886Z,99290.50
2024-04-30T22:33:21.898Z,99288.75
2024-04-30T22:36:29.630Z,99283.75
2024-04-30T22:39:33.176Z,99299.25
2024-04-30T22:42:38.638Z,99284.88
2024-04-30T22:45:43.806Z,99284.06
2024-04-30T22:48:48.951Z,99286.06
2024-04-30T22:51:56.731Z,99283.06
2024-04-30T22:55:01.867Z,99281.28
2024-04-30T22:58:07.223Z,99285.97
2024-04-30T23:01:12.632Z,99278.03
2024-04-30T23:04:15.205Z,99283.88
2024-04-30T23:07:22.841Z,99279.75
2024-04-30T23:10:25.348Z,99280.63
2024-04-30T23:13:30.369Z,99278.91
2024-04-30T23:16:36.827Z,99279.41
2024-04-30T23:19:39.075Z,99272.09
2024-04-30T23:22:46.776Z,99268.69
2024-04-30T23:25:49.032Z,99274.75
2024-04-30T23:28:53.981Z,99275.72
2024-04-30T23:31:58.994Z,99265.72
2024-04-30T23:35:04.226Z,99261.66
2024-04-30T23:38:11.938Z,99268.13
2024-04-30T23:41:14.241Z,99265.34
2024-04-30T23:44:19.234Z,99262.66
2024-04-30T23:47:24.341Z,99256.28
2024-04-30T23:50:29.792Z,99266.75
2024-04-30T23:53:38.284Z,99263.75
2024-04-30T23:56:40.682Z,99252.31
2024-04-30T23:59:45.669Z,99257.91
